logo
Search for airport 
image banner adimage banner adimage banner ad
image banner ad

MMCM - Chetumal Aeropuerto Internacional

Located in Chetumal, Mexico

ICAO - MMCM, IATA - CTM

Data provided by Airmate  

General information

Coordinates: N18°30'19" W88°19'45"
Elevation is 39 feet MSL.
 
View others Airports in Quintana Roo

Operational data

Special qualification required
Current time UTC:
Current local time:
Weather
TAF: TAF MMCM 220523Z 2206/2306 12005KT 5SM HZ SCT250 FM221700 12012KT 5SM HZ SCT020 FM230200 12005KT 5SM HZ SCT020
View NOTAMs / SUP AIP / TFR affecting this airport [VIEW]
Communications frequencies: [VIEW]

Runways:

RWY identifierQFULength (ft)Width (ft)SurfaceLDA (ft)
10108°8839148ASP
28288°8839148ASP

Airport contact information

Address: Chetumal Mexico

Satellite view of MMCM